sensor_id;sensor_type;location;lat;lon;timestamp;temperature;humidity
2941;DHT22;1480;51.456;6.670;2022-08-16T00:02:02;25.90;52.80
2941;DHT22;1480;51.456;6.670;2022-08-16T00:04:29;25.90;53.00
2941;DHT22;1480;51.456;6.670;2022-08-16T00:06:56;25.90;52.80
2941;DHT22;1480;51.456;6.670;2022-08-16T00:09:24;25.90;53.40
2941;DHT22;1480;51.456;6.670;2022-08-16T00:11:52;25.80;53.10
2941;DHT22;1480;51.456;6.670;2022-08-16T00:14:22;25.70;52.90
2941;DHT22;1480;51.456;6.670;2022-08-16T00:16:49;25.60;53.60
2941;DHT22;1480;51.456;6.670;2022-08-16T00:19:18;25.60;53.90
2941;DHT22;1480;51.456;6.670;2022-08-16T00:21:46;25.50;53.90
2941;DHT22;1480;51.456;6.670;2022-08-16T00:24:13;25.60;53.80
2941;DHT22;1480;51.456;6.670;2022-08-16T00:26:42;25.50;54.10
2941;DHT22;1480;51.456;6.670;2022-08-16T00:29:11;25.50;54.50
2941;DHT22;1480;51.456;6.670;2022-08-16T00:31:39;25.50;54.20
2941;DHT22;1480;51.456;6.670;2022-08-16T00:34:06;25.50;54.40
2941;DHT22;1480;51.456;6.670;2022-08-16T00:36:48;25.40;54.60
2941;DHT22;1480;51.456;6.670;2022-08-16T00:39:21;25.50;54.80
2941;DHT22;1480;51.456;6.670;2022-08-16T00:41:49;25.50;55.10
2941;DHT22;1480;51.456;6.670;2022-08-16T00:44:20;25.50;55.10
2941;DHT22;1480;51.456;6.670;2022-08-16T00:46:52;25.40;55.10
2941;DHT22;1480;51.456;6.670;2022-08-16T00:49:20;25.40;55.20
2941;DHT22;1480;51.456;6.670;2022-08-16T00:51:49;25.40;55.30
2941;DHT22;1480;51.456;6.670;2022-08-16T00:54:16;25.40;55.50
2941;DHT22;1480;51.456;6.670;2022-08-16T00:56:46;25.50;55.60
2941;DHT22;1480;51.456;6.670;2022-08-16T00:59:29;25.50;55.60
2941;DHT22;1480;51.456;6.670;2022-08-16T01:01:56;25.50;55.70
2941;DHT22;1480;51.456;6.670;2022-08-16T01:04:25;25.50;55.90
2941;DHT22;1480;51.456;6.670;2022-08-16T01:06:53;25.30;55.50
2941;DHT22;1480;51.456;6.670;2022-08-16T01:09:21;25.50;55.70
2941;DHT22;1480;51.456;6.670;2022-08-16T01:11:48;25.40;55.70
2941;DHT22;1480;51.456;6.670;2022-08-16T01:14:20;25.50;55.80
2941;DHT22;1480;51.456;6.670;2022-08-16T01:17:04;25.30;56.00
2941;DHT22;1480;51.456;6.670;2022-08-16T01:19:35;25.40;56.00
2941;DHT22;1480;51.456;6.670;2022-08-16T01:22:10;25.30;56.50
2941;DHT22;1480;51.456;6.670;2022-08-16T01:24:42;25.30;56.30
2941;DHT22;1480;51.456;6.670;2022-08-16T01:27:13;25.20;56.50
2941;DHT22;1480;51.456;6.670;2022-08-16T01:29:44;25.20;56.90
2941;DHT22;1480;51.456;6.670;2022-08-16T01:32:13;25.10;56.40
2941;DHT22;1480;51.456;6.670;2022-08-16T01:34:40;25.10;56.80
2941;DHT22;1480;51.456;6.670;2022-08-16T01:37:10;25.10;57.10
2941;DHT22;1480;51.456;6.670;2022-08-16T01:39:41;25.10;56.80
2941;DHT22;1480;51.456;6.670;2022-08-16T01:42:09;25.00;57.10
2941;DHT22;1480;51.456;6.670;2022-08-16T01:44:37;24.90;57.20
2941;DHT22;1480;51.456;6.670;2022-08-16T01:47:06;24.90;57.20
2941;DHT22;1480;51.456;6.670;2022-08-16T01:49:35;25.00;57.40
2941;DHT22;1480;51.456;6.670;2022-08-16T01:52:05;24.90;57.10
2941;DHT22;1480;51.456;6.670;2022-08-16T01:54:55;24.90;57.10
2941;DHT22;1480;51.456;6.670;2022-08-16T01:57:23;24.90;57.20
2941;DHT22;1480;51.456;6.670;2022-08-16T01:59:51;24.90;57.50
2941;DHT22;1480;51.456;6.670;2022-08-16T02:02:18;24.80;57.60
2941;DHT22;1480;51.456;6.670;2022-08-16T02:05:06;24.70;57.30
2941;DHT22;1480;51.456;6.670;2022-08-16T02:07:34;24.70;57.90
2941;DHT22;1480;51.456;6.670;2022-08-16T02:10:06;24.60;57.90
2941;DHT22;1480;51.456;6.670;2022-08-16T02:12:39;24.60;57.70
2941;DHT22;1480;51.456;6.670;2022-08-16T02:15:23;24.60;58.00
2941;DHT22;1480;51.456;6.670;2022-08-16T02:17:54;24.60;57.90
2941;DHT22;1480;51.456;6.670;2022-08-16T02:20:22;24.50;57.90
2941;DHT22;1480;51.456;6.670;2022-08-16T02:22:49;24.60;58.50
2941;DHT22;1480;51.456;6.670;2022-08-16T02:25:18;24.50;58.50
2941;DHT22;1480;51.456;6.670;2022-08-16T02:27:45;24.50;58.70
2941;DHT22;1480;51.456;6.670;2022-08-16T02:30:16;24.30;58.60
2941;DHT22;1480;51.456;6.670;2022-08-16T02:32:45;24.40;58.80
2941;DHT22;1480;51.456;6.670;2022-08-16T02:35:12;24.30;58.70
2941;DHT22;1480;51.456;6.670;2022-08-16T02:37:40;24.40;58.80
2941;DHT22;1480;51.456;6.670;2022-08-16T02:40:08;24.40;58.50
2941;DHT22;1480;51.456;6.670;2022-08-16T02:42:36;24.30;58.40
2941;DHT22;1480;51.456;6.670;2022-08-16T02:45:04;24.50;58.40
2941;DHT22;1480;51.456;6.670;2022-08-16T02:47:33;24.40;58.50
2941;DHT22;1480;51.456;6.670;2022-08-16T02:50:00;24.40;58.00
2941;DHT22;1480;51.456;6.670;2022-08-16T02:52:28;24.40;58.00
2941;DHT22;1480;51.456;6.670;2022-08-16T02:54:59;24.40;57.70
2941;DHT22;1480;51.456;6.670;2022-08-16T02:57:26;24.40;58.70
2941;DHT22;1480;51.456;6.670;2022-08-16T02:59:54;24.40;58.50
2941;DHT22;1480;51.456;6.670;2022-08-16T03:02:21;24.40;58.20
2941;DHT22;1480;51.456;6.670;2022-08-16T03:04:52;24.40;58.20
2941;DHT22;1480;51.456;6.670;2022-08-16T03:07:21;24.40;57.70
2941;DHT22;1480;51.456;6.670;2022-08-16T03:09:49;24.50;58.10
2941;DHT22;1480;51.456;6.670;2022-08-16T03:12:20;24.60;57.70
2941;DHT22;1480;51.456;6.670;2022-08-16T03:14:48;24.50;58.10
2941;DHT22;1480;51.456;6.670;2022-08-16T03:17:20;24.50;57.80
2941;DHT22;1480;51.456;6.670;2022-08-16T03:19:50;24.50;57.60
2941;DHT22;1480;51.456;6.670;2022-08-16T03:22:20;24.60;57.40
2941;DHT22;1480;51.456;6.670;2022-08-16T03:24:47;24.70;57.00
2941;DHT22;1480;51.456;6.670;2022-08-16T03:27:15;24.60;57.20
2941;DHT22;1480;51.456;6.670;2022-08-16T03:29:42;24.50;57.80
2941;DHT22;1480;51.456;6.670;2022-08-16T03:32:10;24.50;57.70
2941;DHT22;1480;51.456;6.670;2022-08-16T03:34:38;24.40;57.70
2941;DHT22;1480;51.456;6.670;2022-08-16T03:37:05;24.50;57.80
2941;DHT22;1480;51.456;6.670;2022-08-16T03:39:33;24.40;58.00
2941;DHT22;1480;51.456;6.670;2022-08-16T03:42:00;24.30;58.30
2941;DHT22;1480;51.456;6.670;2022-08-16T03:44:32;24.40;58.10
2941;DHT22;1480;51.456;6.670;2022-08-16T03:46:59;24.40;58.00
2941;DHT22;1480;51.456;6.670;2022-08-16T03:49:31;24.30;58.60
2941;DHT22;1480;51.456;6.670;2022-08-16T03:52:02;24.30;58.50
2941;DHT22;1480;51.456;6.670;2022-08-16T03:54:31;24.20;59.40
2941;DHT22;1480;51.456;6.670;2022-08-16T03:56:58;24.10;59.80
2941;DHT22;1480;51.456;6.670;2022-08-16T03:59:27;24.00;60.20
2941;DHT22;1480;51.456;6.670;2022-08-16T04:01:54;24.00;59.90
2941;DHT22;1480;51.456;6.670;2022-08-16T04:04:21;24.00;59.60
2941;DHT22;1480;51.456;6.670;2022-08-16T04:07:05;24.00;60.00
2941;DHT22;1480;51.456;6.670;2022-08-16T04:09:38;23.90;59.90
2941;DHT22;1480;51.456;6.670;2022-08-16T04:12:08;23.90;60.30
2941;DHT22;1480;51.456;6.670;2022-08-16T04:14:42;23.90;61.40
2941;DHT22;1480;51.456;6.670;2022-08-16T04:17:17;23.80;61.10
2941;DHT22;1480;51.456;6.670;2022-08-16T04:19:44;23.80;61.50
2941;DHT22;1480;51.456;6.670;2022-08-16T04:22:14;23.70;61.70
2941;DHT22;1480;51.456;6.670;2022-08-16T04:25:03;23.80;61.70
2941;DHT22;1480;51.456;6.670;2022-08-16T04:27:35;23.80;62.00
2941;DHT22;1480;51.456;6.670;2022-08-16T04:30:26;23.80;62.30
2941;DHT22;1480;51.456;6.670;2022-08-16T04:32:54;23.80;62.50
2941;DHT22;1480;51.456;6.670;2022-08-16T04:35:22;23.60;64.50
2941;DHT22;1480;51.456;6.670;2022-08-16T04:37:52;23.60;62.60
2941;DHT22;1480;51.456;6.670;2022-08-16T04:40:26;23.50;64.70
2941;DHT22;1480;51.456;6.670;2022-08-16T04:42:55;23.50;65.30
2941;DHT22;1480;51.456;6.670;2022-08-16T04:45:27;23.50;65.30
2941;DHT22;1480;51.456;6.670;2022-08-16T04:47:55;23.40;65.90
2941;DHT22;1480;51.456;6.670;2022-08-16T04:50:47;23.40;66.20
2941;DHT22;1480;51.456;6.670;2022-08-16T04:53:19;23.40;66.40
2941;DHT22;1480;51.456;6.670;2022-08-16T04:55:49;23.50;66.00
2941;DHT22;1480;51.456;6.670;2022-08-16T04:58:16;23.50;65.80
2941;DHT22;1480;51.456;6.670;2022-08-16T05:00:43;23.60;65.70
2941;DHT22;1480;51.456;6.670;2022-08-16T05:03:14;23.70;63.20
2941;DHT22;1480;51.456;6.670;2022-08-16T05:05:47;23.80;63.30
2941;DHT22;1480;51.456;6.670;2022-08-16T05:08:23;23.90;62.90
2941;DHT22;1480;51.456;6.670;2022-08-16T05:10:59;23.90;62.80
2941;DHT22;1480;51.456;6.670;2022-08-16T05:13:28;23.90;62.90
2941;DHT22;1480;51.456;6.670;2022-08-16T05:15:57;23.70;64.00
2941;DHT22;1480;51.456;6.670;2022-08-16T05:18:47;23.70;63.70
2941;DHT22;1480;51.456;6.670;2022-08-16T05:21:14;23.70;63.90
2941;DHT22;1480;51.456;6.670;2022-08-16T05:23:48;23.80;63.80
2941;DHT22;1480;51.456;6.670;2022-08-16T05:26:16;23.80;63.90
2941;DHT22;1480;51.456;6.670;2022-08-16T05:28:43;23.70;63.70
2941;DHT22;1480;51.456;6.670;2022-08-16T05:31:10;23.70;64.10
2941;DHT22;1480;51.456;6.670;2022-08-16T05:33:38;23.50;65.90
2941;DHT22;1480;51.456;6.670;2022-08-16T05:36:06;23.50;66.80
2941;DHT22;1480;51.456;6.670;2022-08-16T05:38:39;23.60;66.00
2941;DHT22;1480;51.456;6.670;2022-08-16T05:41:12;23.60;66.10
2941;DHT22;1480;51.456;6.670;2022-08-16T05:43:41;23.50;65.80
2941;DHT22;1480;51.456;6.670;2022-08-16T05:46:09;23.50;66.50
2941;DHT22;1480;51.456;6.670;2022-08-16T05:48:37;23.50;66.20
2941;DHT22;1480;51.456;6.670;2022-08-16T05:51:08;23.60;64.40
2941;DHT22;1480;51.456;6.670;2022-08-16T05:53:35;23.70;64.60
2941;DHT22;1480;51.456;6.670;2022-08-16T05:56:22;23.80;63.90
2941;DHT22;1480;51.456;6.670;2022-08-16T05:58:50;24.00;63.50
2941;DHT22;1480;51.456;6.670;2022-08-16T06:01:18;24.00;62.60
2941;DHT22;1480;51.456;6.670;2022-08-16T06:03:49;24.00;62.80
2941;DHT22;1480;51.456;6.670;2022-08-16T06:06:41;24.20;62.80
2941;DHT22;1480;51.456;6.670;2022-08-16T06:09:13;24.30;62.50
2941;DHT22;1480;51.456;6.670;2022-08-16T06:12:06;24.50;60.60
2941;DHT22;1480;51.456;6.670;2022-08-16T06:14:34;24.70;61.50
2941;DHT22;1480;51.456;6.670;2022-08-16T06:17:01;24.90;60.20
2941;DHT22;1480;51.456;6.670;2022-08-16T06:19:29;25.00;59.50
2941;DHT22;1480;51.456;6.670;2022-08-16T06:22:01;24.90;60.10
2941;DHT22;1480;51.456;6.670;2022-08-16T06:24:52;24.90;59.80
2941;DHT22;1480;51.456;6.670;2022-08-16T06:27:29;25.10;59.10
2941;DHT22;1480;51.456;6.670;2022-08-16T06:29:56;25.40;58.90
2941;DHT22;1480;51.456;6.670;2022-08-16T06:32:23;25.40;58.70
2941;DHT22;1480;51.456;6.670;2022-08-16T06:34:50;25.50;58.40
2941;DHT22;1480;51.456;6.670;2022-08-16T06:37:17;25.40;57.90
2941;DHT22;1480;51.456;6.670;2022-08-16T06:39:45;25.60;57.70
2941;DHT22;1480;51.456;6.670;2022-08-16T06:42:22;25.60;58.00
2941;DHT22;1480;51.456;6.670;2022-08-16T06:44:59;25.70;58.50
2941;DHT22;1480;51.456;6.670;2022-08-16T06:48:03;25.90;57.40
2941;DHT22;1480;51.456;6.670;2022-08-16T06:50:30;25.90;56.60
2941;DHT22;1480;51.456;6.670;2022-08-16T06:53:03;26.00;56.70
2941;DHT22;1480;51.456;6.670;2022-08-16T06:55:33;26.10;56.10
2941;DHT22;1480;51.456;6.670;2022-08-16T06:58:03;26.30;56.50
2941;DHT22;1480;51.456;6.670;2022-08-16T07:00:33;26.30;56.50
2941;DHT22;1480;51.456;6.670;2022-08-16T07:03:07;26.30;55.80
2941;DHT22;1480;51.456;6.670;2022-08-16T07:05:38;26.50;53.90
2941;DHT22;1480;51.456;6.670;2022-08-16T07:08:28;26.60;54.30
2941;DHT22;1480;51.456;6.670;2022-08-16T07:10:56;26.70;53.60
2941;DHT22;1480;51.456;6.670;2022-08-16T07:13:36;26.80;53.50
2941;DHT22;1480;51.456;6.670;2022-08-16T07:16:05;26.80;54.50
2941;DHT22;1480;51.456;6.670;2022-08-16T07:18:34;26.80;53.30
2941;DHT22;1480;51.456;6.670;2022-08-16T07:21:01;26.90;53.30
2941;DHT22;1480;51.456;6.670;2022-08-16T07:23:31;26.90;53.00
2941;DHT22;1480;51.456;6.670;2022-08-16T07:25:59;26.80;52.70
2941;DHT22;1480;51.456;6.670;2022-08-16T07:28:26;26.90;53.80
2941;DHT22;1480;51.456;6.670;2022-08-16T07:30:54;27.00;53.20
2941;DHT22;1480;51.456;6.670;2022-08-16T07:33:55;27.10;53.40
2941;DHT22;1480;51.456;6.670;2022-08-16T07:36:27;27.40;52.50
2941;DHT22;1480;51.456;6.670;2022-08-16T07:38:54;27.60;52.20
2941;DHT22;1480;51.456;6.670;2022-08-16T07:41:22;27.60;51.60
2941;DHT22;1480;51.456;6.670;2022-08-16T07:43:57;27.60;51.70
2941;DHT22;1480;51.456;6.670;2022-08-16T07:46:24;27.70;52.30
2941;DHT22;1480;51.456;6.670;2022-08-16T07:48:52;27.70;51.20
2941;DHT22;1480;51.456;6.670;2022-08-16T07:51:20;27.80;52.60
2941;DHT22;1480;51.456;6.670;2022-08-16T07:53:48;27.70;51.40
2941;DHT22;1480;51.456;6.670;2022-08-16T07:56:18;27.90;50.90
2941;DHT22;1480;51.456;6.670;2022-08-16T07:58:46;28.10;51.30
2941;DHT22;1480;51.456;6.670;2022-08-16T08:01:15;28.20;50.00
2941;DHT22;1480;51.456;6.670;2022-08-16T08:03:46;28.20;50.70
2941;DHT22;1480;51.456;6.670;2022-08-16T08:06:14;28.50;50.20
2941;DHT22;1480;51.456;6.670;2022-08-16T08:08:42;28.40;50.20
2941;DHT22;1480;51.456;6.670;2022-08-16T08:11:09;28.60;49.20
2941;DHT22;1480;51.456;6.670;2022-08-16T08:13:37;28.50;49.30
2941;DHT22;1480;51.456;6.670;2022-08-16T08:16:05;28.50;49.20
2941;DHT22;1480;51.456;6.670;2022-08-16T08:18:34;28.50;49.70
2941;DHT22;1480;51.456;6.670;2022-08-16T08:21:01;28.50;49.20
2941;DHT22;1480;51.456;6.670;2022-08-16T08:23:32;28.50;49.20
2941;DHT22;1480;51.456;6.670;2022-08-16T08:26:02;28.70;49.00
2941;DHT22;1480;51.456;6.670;2022-08-16T08:28:31;28.90;49.40
2941;DHT22;1480;51.456;6.670;2022-08-16T08:31:03;28.90;48.90
2941;DHT22;1480;51.456;6.670;2022-08-16T08:33:35;28.90;48.60
2941;DHT22;1480;51.456;6.670;2022-08-16T08:36:06;29.00;48.50
2941;DHT22;1480;51.456;6.670;2022-08-16T08:38:36;29.20;47.20
2941;DHT22;1480;51.456;6.670;2022-08-16T08:41:06;29.10;47.50
2941;DHT22;1480;51.456;6.670;2022-08-16T08:43:34;29.30;47.20
2941;DHT22;1480;51.456;6.670;2022-08-16T08:46:02;29.30;46.50
2941;DHT22;1480;51.456;6.670;2022-08-16T08:48:31;29.40;46.40
2941;DHT22;1480;51.456;6.670;2022-08-16T08:50:58;29.50;46.00
2941;DHT22;1480;51.456;6.670;2022-08-16T08:53:26;29.50;45.40
2941;DHT22;1480;51.456;6.670;2022-08-16T08:55:54;29.60;45.90
2941;DHT22;1480;51.456;6.670;2022-08-16T08:58:22;29.60;45.40
2941;DHT22;1480;51.456;6.670;2022-08-16T09:01:08;29.70;45.70
2941;DHT22;1480;51.456;6.670;2022-08-16T09:03:38;29.80;44.70
2941;DHT22;1480;51.456;6.670;2022-08-16T09:06:06;30.00;44.80
2941;DHT22;1480;51.456;6.670;2022-08-16T09:08:37;29.90;44.20
2941;DHT22;1480;51.456;6.670;2022-08-16T09:11:36;30.10;43.70
2941;DHT22;1480;51.456;6.670;2022-08-16T09:14:04;30.20;43.20
2941;DHT22;1480;51.456;6.670;2022-08-16T09:16:33;30.30;43.20
2941;DHT22;1480;51.456;6.670;2022-08-16T09:19:01;30.30;43.70
2941;DHT22;1480;51.456;6.670;2022-08-16T09:21:28;30.30;43.50
2941;DHT22;1480;51.456;6.670;2022-08-16T09:23:55;30.30;43.50
2941;DHT22;1480;51.456;6.670;2022-08-16T09:26:23;30.30;42.90
2941;DHT22;1480;51.456;6.670;2022-08-16T09:28:50;30.30;42.80
2941;DHT22;1480;51.456;6.670;2022-08-16T09:31:21;30.40;43.30
2941;DHT22;1480;51.456;6.670;2022-08-16T09:33:50;30.60;42.20
2941;DHT22;1480;51.456;6.670;2022-08-16T09:36:19;30.50;42.70
2941;DHT22;1480;51.456;6.670;2022-08-16T09:38:46;30.60;42.10
2941;DHT22;1480;51.456;6.670;2022-08-16T09:41:13;30.70;42.50
2941;DHT22;1480;51.456;6.670;2022-08-16T09:43:40;30.70;41.80
2941;DHT22;1480;51.456;6.670;2022-08-16T09:46:15;30.80;42.10
2941;DHT22;1480;51.456;6.670;2022-08-16T09:48:43;30.80;41.10
2941;DHT22;1480;51.456;6.670;2022-08-16T09:51:12;30.80;41.40
2941;DHT22;1480;51.456;6.670;2022-08-16T09:53:40;31.00;42.20
2941;DHT22;1480;51.456;6.670;2022-08-16T09:56:12;30.90;41.00
2941;DHT22;1480;51.456;6.670;2022-08-16T09:58:40;30.90;42.30
2941;DHT22;1480;51.456;6.670;2022-08-16T10:01:07;30.90;40.20
2941;DHT22;1480;51.456;6.670;2022-08-16T10:03:34;30.70;40.80
2941;DHT22;1480;51.456;6.670;2022-08-16T10:06:04;30.80;41.10
2941;DHT22;1480;51.456;6.670;2022-08-16T10:08:31;30.90;41.60
2941;DHT22;1480;51.456;6.670;2022-08-16T10:11:08;31.00;41.70
2941;DHT22;1480;51.456;6.670;2022-08-16T10:13:52;31.10;40.00
2941;DHT22;1480;51.456;6.670;2022-08-16T10:16:20;31.20;39.80
2941;DHT22;1480;51.456;6.670;2022-08-16T10:18:48;31.30;39.40
2941;DHT22;1480;51.456;6.670;2022-08-16T10:21:19;31.40;39.00
2941;DHT22;1480;51.456;6.670;2022-08-16T10:23:47;31.50;39.10
2941;DHT22;1480;51.456;6.670;2022-08-16T10:26:17;31.50;39.20
2941;DHT22;1480;51.456;6.670;2022-08-16T10:29:02;31.40;38.70
2941;DHT22;1480;51.456;6.670;2022-08-16T10:31:44;31.40;38.20
2941;DHT22;1480;51.456;6.670;2022-08-16T10:34:12;31.30;37.90
2941;DHT22;1480;51.456;6.670;2022-08-16T10:36:58;31.20;37.50
2941;DHT22;1480;51.456;6.670;2022-08-16T10:39:36;31.20;37.70
2941;DHT22;1480;51.456;6.670;2022-08-16T10:42:17;31.10;39.00
2941;DHT22;1480;51.456;6.670;2022-08-16T10:45:02;31.20;38.60
2941;DHT22;1480;51.456;6.670;2022-08-16T10:47:41;31.40;39.00
2941;DHT22;1480;51.456;6.670;2022-08-16T10:50:20;31.50;36.60
2941;DHT22;1480;51.456;6.670;2022-08-16T10:52:48;31.60;36.90
2941;DHT22;1480;51.456;6.670;2022-08-16T10:55:19;31.80;37.80
2941;DHT22;1480;51.456;6.670;2022-08-16T10:57:49;31.70;37.50
2941;DHT22;1480;51.456;6.670;2022-08-16T11:00:21;31.80;37.50
2941;DHT22;1480;51.456;6.670;2022-08-16T11:03:00;31.90;36.20
2941;DHT22;1480;51.456;6.670;2022-08-16T11:05:34;31.90;35.30
2941;DHT22;1480;51.456;6.670;2022-08-16T11:08:17;31.80;34.70
2941;DHT22;1480;51.456;6.670;2022-08-16T11:10:47;32.00;35.80
2941;DHT22;1480;51.456;6.670;2022-08-16T11:13:21;32.10;35.40
2941;DHT22;1480;51.456;6.670;2022-08-16T11:15:50;32.00;35.50
2941;DHT22;1480;51.456;6.670;2022-08-16T11:18:18;32.00;34.90
2941;DHT22;1480;51.456;6.670;2022-08-16T11:20:46;32.10;34.50
2941;DHT22;1480;51.456;6.670;2022-08-16T11:23:19;32.20;34.50
2941;DHT22;1480;51.456;6.670;2022-08-16T11:25:46;32.20;33.80
2941;DHT22;1480;51.456;6.670;2022-08-16T11:28:14;32.20;34.50
2941;DHT22;1480;51.456;6.670;2022-08-16T11:30:41;32.20;32.80
2941;DHT22;1480;51.456;6.670;2022-08-16T11:33:09;31.90;33.10
2941;DHT22;1480;51.456;6.670;2022-08-16T11:35:38;31.80;34.20
2941;DHT22;1480;51.456;6.670;2022-08-16T11:38:08;32.00;33.30
2941;DHT22;1480;51.456;6.670;2022-08-16T11:40:40;32.00;32.20
2941;DHT22;1480;51.456;6.670;2022-08-16T11:43:26;32.00;31.80
2941;DHT22;1480;51.456;6.670;2022-08-16T11:45:58;32.00;32.60
2941;DHT22;1480;51.456;6.670;2022-08-16T11:48:30;32.20;32.80
2941;DHT22;1480;51.456;6.670;2022-08-16T11:50:59;32.40;30.80
2941;DHT22;1480;51.456;6.670;2022-08-16T11:53:29;32.60;31.50
2941;DHT22;1480;51.456;6.670;2022-08-16T11:55:59;32.80;31.90
2941;DHT22;1480;51.456;6.670;2022-08-16T11:58:28;32.80;31.60
2941;DHT22;1480;51.456;6.670;2022-08-16T12:00:56;33.00;31.50
2941;DHT22;1480;51.456;6.670;2022-08-16T12:03:25;32.90;31.00
2941;DHT22;1480;51.456;6.670;2022-08-16T12:05:53;32.80;32.30
2941;DHT22;1480;51.456;6.670;2022-08-16T12:08:21;32.80;31.70
2941;DHT22;1480;51.456;6.670;2022-08-16T12:10:48;32.90;32.00
2941;DHT22;1480;51.456;6.670;2022-08-16T12:13:18;32.80;31.60
2941;DHT22;1480;51.456;6.670;2022-08-16T12:15:45;32.80;31.30
2941;DHT22;1480;51.456;6.670;2022-08-16T12:18:12;32.60;31.10
2941;DHT22;1480;51.456;6.670;2022-08-16T12:20:42;32.20;31.10
2941;DHT22;1480;51.456;6.670;2022-08-16T12:23:10;32.20;32.10
2941;DHT22;1480;51.456;6.670;2022-08-16T12:25:41;32.10;31.70
2941;DHT22;1480;51.456;6.670;2022-08-16T12:28:28;32.00;31.80
2941;DHT22;1480;51.456;6.670;2022-08-16T12:31:11;32.00;31.90
2941;DHT22;1480;51.456;6.670;2022-08-16T12:33:40;32.00;31.20
2941;DHT22;1480;51.456;6.670;2022-08-16T12:36:20;32.10;31.70
2941;DHT22;1480;51.456;6.670;2022-08-16T12:38:49;32.00;31.40
2941;DHT22;1480;51.456;6.670;2022-08-16T12:41:16;32.00;31.80
2941;DHT22;1480;51.456;6.670;2022-08-16T12:43:45;32.10;32.10
2941;DHT22;1480;51.456;6.670;2022-08-16T12:46:13;32.10;31.40
2941;DHT22;1480;51.456;6.670;2022-08-16T12:48:43;32.10;31.10
2941;DHT22;1480;51.456;6.670;2022-08-16T12:51:33;32.00;31.90
2941;DHT22;1480;51.456;6.670;2022-08-16T12:54:10;32.00;32.00
2941;DHT22;1480;51.456;6.670;2022-08-16T12:56:38;32.20;31.60
2941;DHT22;1480;51.456;6.670;2022-08-16T12:59:09;32.20;31.30
2941;DHT22;1480;51.456;6.670;2022-08-16T13:01:38;32.30;32.20
2941;DHT22;1480;51.456;6.670;2022-08-16T13:04:06;32.60;31.80
2941;DHT22;1480;51.456;6.670;2022-08-16T13:06:35;32.70;31.30
2941;DHT22;1480;51.456;6.670;2022-08-16T13:09:04;32.80;29.20
2941;DHT22;1480;51.456;6.670;2022-08-16T13:11:49;32.70;29.80
2941;DHT22;1480;51.456;6.670;2022-08-16T13:14:27;32.70;29.80
2941;DHT22;1480;51.456;6.670;2022-08-16T13:16:54;32.60;29.90
2941;DHT22;1480;51.456;6.670;2022-08-16T13:19:21;32.60;29.50
2941;DHT22;1480;51.456;6.670;2022-08-16T13:21:57;32.70;29.40
2941;DHT22;1480;51.456;6.670;2022-08-16T13:24:29;32.70;29.60
2941;DHT22;1480;51.456;6.670;2022-08-16T13:27:03;32.70;29.60
2941;DHT22;1480;51.456;6.670;2022-08-16T13:29:32;32.70;29.60
2941;DHT22;1480;51.456;6.670;2022-08-16T13:31:59;32.70;28.90
2941;DHT22;1480;51.456;6.670;2022-08-16T13:34:26;32.80;29.50
2941;DHT22;1480;51.456;6.670;2022-08-16T13:36:53;32.60;29.80
2941;DHT22;1480;51.456;6.670;2022-08-16T13:39:23;32.60;29.40
2941;DHT22;1480;51.456;6.670;2022-08-16T13:41:56;32.60;28.80
2941;DHT22;1480;51.456;6.670;2022-08-16T13:44:27;32.80;29.10
2941;DHT22;1480;51.456;6.670;2022-08-16T13:46:55;32.90;28.60
2941;DHT22;1480;51.456;6.670;2022-08-16T13:49:25;32.90;29.20
2941;DHT22;1480;51.456;6.670;2022-08-16T13:51:52;32.80;28.20
2941;DHT22;1480;51.456;6.670;2022-08-16T13:54:19;32.90;27.90
2941;DHT22;1480;51.456;6.670;2022-08-16T13:56:46;32.90;27.60
2941;DHT22;1480;51.456;6.670;2022-08-16T13:59:13;33.00;27.70
2941;DHT22;1480;51.456;6.670;2022-08-16T14:01:41;33.00;27.60
2941;DHT22;1480;51.456;6.670;2022-08-16T14:04:10;33.00;27.70
2941;DHT22;1480;51.456;6.670;2022-08-16T14:06:37;32.90;27.80
2941;DHT22;1480;51.456;6.670;2022-08-16T14:09:04;32.90;27.50
2941;DHT22;1480;51.456;6.670;2022-08-16T14:11:32;32.70;28.00
2941;DHT22;1480;51.456;6.670;2022-08-16T14:13:59;32.60;28.10
2941;DHT22;1480;51.456;6.670;2022-08-16T14:16:26;32.60;28.60
2941;DHT22;1480;51.456;6.670;2022-08-16T14:18:53;32.70;27.70
2941;DHT22;1480;51.456;6.670;2022-08-16T14:21:22;32.70;28.20
2941;DHT22;1480;51.456;6.670;2022-08-16T14:23:49;32.80;27.90
2941;DHT22;1480;51.456;6.670;2022-08-16T14:26:17;32.80;28.00
2941;DHT22;1480;51.456;6.670;2022-08-16T14:28:45;32.80;28.00
2941;DHT22;1480;51.456;6.670;2022-08-16T14:31:14;32.90;28.10
2941;DHT22;1480;51.456;6.670;2022-08-16T14:33:41;32.90;27.80
2941;DHT22;1480;51.456;6.670;2022-08-16T14:36:09;33.00;28.40
2941;DHT22;1480;51.456;6.670;2022-08-16T14:38:37;33.10;27.20
2941;DHT22;1480;51.456;6.670;2022-08-16T14:41:04;33.30;27.30
2941;DHT22;1480;51.456;6.670;2022-08-16T14:43:32;33.40;27.20
2941;DHT22;1480;51.456;6.670;2022-08-16T14:45:59;33.20;27.40
2941;DHT22;1480;51.456;6.670;2022-08-16T14:48:26;33.00;27.40
2941;DHT22;1480;51.456;6.670;2022-08-16T14:50:53;32.90;27.70
2941;DHT22;1480;51.456;6.670;2022-08-16T14:53:20;32.90;27.90
2941;DHT22;1480;51.456;6.670;2022-08-16T14:55:48;32.80;27.60
2941;DHT22;1480;51.456;6.670;2022-08-16T14:58:15;32.70;28.20
2941;DHT22;1480;51.456;6.670;2022-08-16T15:00:45;32.70;26.90
2941;DHT22;1480;51.456;6.670;2022-08-16T15:03:16;32.60;27.50
2941;DHT22;1480;51.456;6.670;2022-08-16T15:05:43;32.50;27.40
2941;DHT22;1480;51.456;6.670;2022-08-16T15:08:11;32.50;27.40
2941;DHT22;1480;51.456;6.670;2022-08-16T15:10:39;32.40;28.40
2941;DHT22;1480;51.456;6.670;2022-08-16T15:13:08;32.30;28.10
2941;DHT22;1480;51.456;6.670;2022-08-16T15:15:41;32.50;28.30
2941;DHT22;1480;51.456;6.670;2022-08-16T15:18:22;32.50;28.00
2941;DHT22;1480;51.456;6.670;2022-08-16T15:20:51;32.60;28.30
2941;DHT22;1480;51.456;6.670;2022-08-16T15:23:22;32.50;27.80
2941;DHT22;1480;51.456;6.670;2022-08-16T15:25:52;32.70;27.80
2941;DHT22;1480;51.456;6.670;2022-08-16T15:28:23;32.50;27.40
2941;DHT22;1480;51.456;6.670;2022-08-16T15:30:54;32.50;27.60
2941;DHT22;1480;51.456;6.670;2022-08-16T15:33:22;32.50;27.00
2941;DHT22;1480;51.456;6.670;2022-08-16T15:35:50;32.60;27.20
2941;DHT22;1480;51.456;6.670;2022-08-16T15:38:18;32.60;27.30
2941;DHT22;1480;51.456;6.670;2022-08-16T15:40:47;32.60;27.60
2941;DHT22;1480;51.456;6.670;2022-08-16T15:43:16;32.50;27.10
2941;DHT22;1480;51.456;6.670;2022-08-16T15:45:46;32.40;27.40
2941;DHT22;1480;51.456;6.670;2022-08-16T15:48:45;32.30;27.20
2941;DHT22;1480;51.456;6.670;2022-08-16T15:51:17;32.20;27.60
2941;DHT22;1480;51.456;6.670;2022-08-16T15:53:44;32.00;28.40
2941;DHT22;1480;51.456;6.670;2022-08-16T15:56:13;32.00;28.50
2941;DHT22;1480;51.456;6.670;2022-08-16T15:58:40;32.00;28.30
2941;DHT22;1480;51.456;6.670;2022-08-16T16:01:09;32.00;28.00
2941;DHT22;1480;51.456;6.670;2022-08-16T16:03:36;32.00;28.00
2941;DHT22;1480;51.456;6.670;2022-08-16T16:06:04;31.90;28.10
2941;DHT22;1480;51.456;6.670;2022-08-16T16:08:31;31.90;28.10
2941;DHT22;1480;51.456;6.670;2022-08-16T16:11:00;31.90;28.10
2941;DHT22;1480;51.456;6.670;2022-08-16T16:13:31;31.90;28.80
2941;DHT22;1480;51.456;6.670;2022-08-16T16:16:14;31.90;28.80
2941;DHT22;1480;51.456;6.670;2022-08-16T16:18:58;31.90;28.50
2941;DHT22;1480;51.456;6.670;2022-08-16T16:21:33;31.90;28.30
2941;DHT22;1480;51.456;6.670;2022-08-16T16:24:02;31.90;28.80
2941;DHT22;1480;51.456;6.670;2022-08-16T16:26:29;32.00;28.60